createdAt,value
2023-04-03T00:00:57.440Z,2.01
2023-04-03T00:03:59.691Z,1.94
2023-04-03T00:07:01.887Z,1.88
2023-04-03T00:10:06.766Z,1.87
2023-04-03T00:13:09.287Z,1.86
2023-04-03T00:16:12.217Z,1.81
2023-04-03T00:19:14.082Z,1.80
2023-04-03T00:22:15.948Z,1.71
2023-04-03T00:25:20.205Z,1.81
2023-04-03T00:28:22.058Z,1.73
2023-04-03T00:31:23.955Z,1.63
2023-04-03T00:34:25.902Z,1.61
2023-04-03T00:37:27.955Z,1.54
2023-04-03T00:40:36.144Z,1.43
2023-04-03T00:43:38.459Z,1.50
2023-04-03T00:46:40.482Z,1.47
2023-04-03T00:49:43.964Z,1.39
2023-04-03T00:52:48.949Z,1.37
2023-04-03T00:55:53.270Z,1.38
2023-04-03T00:58:59.305Z,1.28
2023-04-03T01:02:02.215Z,1.30
2023-04-03T01:05:05.746Z,1.30
2023-04-03T01:08:12.122Z,1.29
2023-04-03T01:11:15.785Z,1.26
2023-04-03T01:14:18.566Z,1.23
2023-04-03T01:17:32.967Z,1.30
2023-04-03T01:20:50.918Z,1.18
2023-04-03T01:24:06.577Z,1.08
2023-04-03T01:27:13.018Z,1.02
2023-04-03T01:30:21.804Z,1.12
2023-04-03T01:33:26.719Z,1.05
2023-04-03T01:36:36.358Z,0.98
2023-04-03T01:39:39.194Z,0.95
2023-04-03T01:42:41.285Z,0.89
2023-04-03T01:45:43.205Z,0.83
2023-04-03T01:48:49.792Z,0.78
2023-04-03T01:51:52.061Z,0.75
2023-04-03T01:54:54.018Z,0.78
2023-04-03T01:57:56.229Z,0.69
2023-04-03T02:00:59.795Z,0.75
2023-04-03T02:04:03.501Z,0.70
2023-04-03T02:07:05.681Z,0.62
2023-04-03T02:10:09.738Z,0.61
2023-04-03T02:13:11.991Z,0.57
2023-04-03T02:16:17.286Z,0.58
2023-04-03T02:19:21.202Z,0.55
2023-04-03T02:22:23.375Z,0.55
2023-04-03T02:25:29.398Z,0.48
2023-04-03T02:28:31.874Z,0.52
2023-04-03T02:31:34.596Z,0.47
2023-04-03T02:34:42.289Z,0.49
2023-04-03T02:37:47.248Z,0.58
2023-04-03T02:40:50.031Z,0.65
2023-04-03T02:43:52.496Z,0.57
2023-04-03T02:46:54.289Z,0.60
2023-04-03T02:49:57.941Z,0.69
2023-04-03T02:52:59.956Z,0.79
2023-04-03T02:56:01.723Z,0.67
2023-04-03T02:59:04.370Z,0.72
2023-04-03T03:02:08.621Z,0.80
2023-04-03T03:05:11.976Z,0.76
2023-04-03T03:08:14.703Z,0.88
2023-04-03T03:11:16.754Z,0.82
2023-04-03T03:14:18.939Z,0.74
2023-04-03T03:17:21.280Z,0.71
2023-04-03T03:20:24.550Z,0.68
2023-04-03T03:23:30.763Z,0.62
2023-04-03T03:26:33.269Z,0.58
2023-04-03T03:29:38.896Z,0.52
2023-04-03T03:32:49.743Z,0.46
2023-04-03T03:35:54.526Z,0.41
2023-04-03T03:38:57.072Z,0.33
2023-04-03T03:41:59.972Z,0.19
2023-04-03T03:45:01.985Z,0.07
2023-04-03T03:48:04.307Z,-0.01
2023-04-03T03:51:08.220Z,-0.11
2023-04-03T03:54:12.732Z,-0.07
2023-04-03T03:57:14.870Z,-0.18
2023-04-03T04:00:17.396Z,-0.18
2023-04-03T04:03:26.428Z,-0.20
2023-04-03T04:06:29.613Z,-0.19
2023-04-03T04:09:36.713Z,-0.27
2023-04-03T04:12:38.756Z,0.09
2023-04-03T04:15:41.504Z,0.22
2023-04-03T04:18:43.598Z,0.27
2023-04-03T04:21:47.054Z,0.41
2023-04-03T04:24:49.304Z,0.52
2023-04-03T04:27:51.240Z,0.55
2023-04-03T04:30:59.117Z,0.65
2023-04-03T04:34:04.568Z,0.58
2023-04-03T04:37:08.218Z,0.65
2023-04-03T04:40:11.153Z,0.63
2023-04-03T04:43:15.462Z,0.40
2023-04-03T04:46:21.304Z,0.32
2023-04-03T04:49:30.337Z,0.23
2023-04-03T04:52:33.676Z,0.11
2023-04-03T04:55:36.337Z,0.17
2023-04-03T04:58:39.385Z,0.23
2023-04-03T05:01:42.547Z,0.17
2023-04-03T05:04:54.548Z,0.14
2023-04-03T05:08:03.869Z,0.11
2023-04-03T05:11:06.371Z,0.15
2023-04-03T05:14:09.257Z,0.13
2023-04-03T05:17:12.255Z,0.05
2023-04-03T05:20:19.878Z,-0.02
2023-04-03T05:23:24.254Z,0.08
2023-04-03T05:26:27.662Z,0.21
2023-04-03T05:29:29.880Z,0.14
2023-04-03T05:32:34.140Z,0.18
2023-04-03T05:35:51.977Z,0.23
2023-04-03T05:39:06.604Z,0.21
2023-04-03T05:42:12.722Z,0.20
2023-04-03T05:45:14.684Z,0.31
2023-04-03T05:48:16.766Z,0.24
2023-04-03T05:51:20.981Z,0.35
2023-04-03T05:54:29.055Z,0.33
2023-04-03T05:57:46.050Z,0.40
2023-04-03T06:00:48.593Z,0.43
2023-04-03T06:03:51.357Z,0.39
2023-04-03T06:06:55.654Z,0.36
2023-04-03T06:09:59.002Z,0.46
2023-04-03T06:13:03.064Z,0.47
2023-04-03T06:16:06.582Z,0.46
2023-04-03T06:19:09.027Z,0.34
2023-04-03T06:22:14.345Z,0.43
2023-04-03T06:25:19.771Z,0.51
2023-04-03T06:28:21.683Z,0.72
2023-04-03T06:31:23.631Z,0.91
2023-04-03T06:34:25.747Z,0.91
2023-04-03T06:37:29.109Z,1.16
2023-04-03T06:40:32.499Z,1.46
2023-04-03T06:43:34.837Z,1.76
2023-04-03T06:46:36.934Z,1.87
2023-04-03T06:49:38.920Z,2.02
2023-04-03T06:52:44.489Z,2.33
2023-04-03T06:55:48.391Z,2.48
2023-04-03T06:58:51.537Z,2.59
2023-04-03T07:01:53.444Z,2.61
2023-04-03T07:04:56.205Z,2.80
2023-04-03T07:07:58.401Z,2.91
2023-04-03T07:11:02.009Z,2.90
2023-04-03T07:14:04.375Z,3.20
2023-04-03T07:17:06.347Z,3.54
2023-04-03T07:20:10.083Z,3.66
2023-04-03T07:23:12.146Z,3.38
2023-04-03T07:26:15.627Z,3.77
2023-04-03T07:29:17.955Z,3.93
2023-04-03T07:32:19.771Z,4.15
2023-04-03T07:35:21.587Z,4.18
2023-04-03T07:38:23.419Z,4.31
2023-04-03T07:41:26.568Z,4.34
2023-04-03T07:44:28.754Z,4.37
2023-04-03T07:47:31.400Z,4.51
2023-04-03T07:50:33.441Z,4.71
2023-04-03T07:53:39.692Z,4.84
2023-04-03T07:56:43.833Z,4.84
2023-04-03T07:59:45.682Z,4.83
2023-04-03T08:02:52.538Z,4.96
2023-04-03T08:05:54.957Z,5.03
2023-04-03T08:08:56.945Z,5.15
2023-04-03T08:12:03.870Z,5.21
2023-04-03T08:15:09.199Z,5.04
2023-04-03T08:18:13.240Z,5.17
2023-04-03T08:21:15.138Z,5.35
2023-04-03T08:24:16.889Z,5.48
2023-04-03T08:27:20.208Z,5.75
2023-04-03T08:30:22.550Z,5.87
2023-04-03T08:33:24.347Z,5.85
2023-04-03T08:36:28.470Z,6.14
2023-04-03T08:39:30.645Z,5.75
2023-04-03T08:42:44.256Z,6.03
2023-04-03T08:45:49.626Z,6.09
2023-04-03T08:48:52.127Z,5.97
2023-04-03T08:51:55.499Z,5.96
2023-04-03T08:55:02.070Z,5.75
2023-04-03T08:58:08.064Z,5.81
2023-04-03T09:01:19.990Z,5.92
2023-04-03T09:04:21.867Z,5.76
2023-04-03T09:07:34.146Z,6.06
2023-04-03T09:10:39.864Z,6.13
2023-04-03T09:13:51.839Z,6.11
2023-04-03T09:16:57.178Z,6.03
2023-04-03T09:20:11.400Z,6.50
2023-04-03T09:26:53.049Z,6.83
2023-04-03T09:29:58.480Z,7.17
2023-04-03T09:33:00.762Z,7.06
2023-04-03T09:36:02.683Z,7.07
2023-04-03T09:39:06.150Z,6.95
2023-04-03T09:42:19.331Z,6.82
2023-04-03T09:45:26.977Z,6.67
2023-04-03T09:48:29.295Z,6.97
2023-04-03T09:51:32.297Z,7.42
2023-04-03T09:54:38.696Z,7.19
2023-04-03T09:57:40.563Z,7.36
2023-04-03T10:00:43.793Z,7.43
2023-04-03T10:03:47.660Z,7.06
2023-04-03T10:06:52.093Z,7.44
2023-04-03T10:09:57.496Z,7.21
2023-04-03T10:13:07.410Z,7.96
2023-04-03T10:16:18.052Z,7.19
2023-04-03T10:19:37.708Z,7.57
2023-04-03T10:22:57.221Z,7.75
2023-04-03T10:26:17.915Z,7.55
2023-04-03T10:29:38.963Z,7.24
2023-04-03T10:32:58.909Z,6.91
2023-04-03T10:36:12.896Z,7.35
2023-04-03T10:39:27.515Z,7.47
2023-04-03T10:42:36.925Z,7.48
2023-04-03T10:45:54.547Z,7.89
2023-04-03T10:49:10.361Z,7.94
2023-04-03T10:52:18.563Z,8.28
2023-04-03T10:55:32.687Z,8.18
2023-04-03T10:58:39.910Z,9.01
2023-04-03T11:01:45.297Z,9.05
2023-04-03T11:04:53.532Z,8.82
2023-04-03T11:08:03.720Z,8.98
2023-04-03T11:11:10.665Z,8.83
2023-04-03T11:14:17.267Z,8.78
2023-04-03T11:17:29.652Z,8.39
2023-04-03T11:20:38.731Z,8.47
2023-04-03T11:23:49.559Z,8.56
2023-04-03T11:26:55.581Z,8.53
2023-04-03T11:29:59.349Z,8.63
2023-04-03T11:33:23.401Z,8.72
2023-04-03T11:36:33.555Z,9.46
2023-04-03T11:39:40.329Z,9.20
2023-04-03T11:42:44.028Z,9.06
2023-04-03T11:45:56.103Z,8.79
2023-04-03T11:48:59.196Z,9.32
2023-04-03T11:52:03.647Z,8.57
2023-04-03T11:55:55.810Z,9.19
2023-04-03T11:59:22.475Z,8.56
2023-04-03T12:02:51.213Z,10.83
2023-04-03T12:06:01.763Z,9.99
2023-04-03T12:09:24.450Z,10.12
2023-04-03T12:12:37.481Z,9.68
2023-04-03T12:15:52.371Z,9.56
2023-04-03T12:19:05.492Z,9.34
2023-04-03T12:22:16.899Z,9.22
2023-04-03T12:25:55.752Z,8.37
2023-04-03T12:29:00.133Z,8.77
2023-04-03T12:32:13.781Z,9.17
2023-04-03T12:35:22.567Z,9.15
2023-04-03T12:38:59.801Z,9.83
2023-04-03T12:42:18.840Z,10.77
2023-04-03T12:45:23.749Z,10.74
2023-04-03T12:48:27.700Z,11.79
2023-04-03T12:51:39.763Z,11.08
2023-04-03T12:54:45.153Z,9.87
2023-04-03T12:57:47.470Z,9.31
2023-04-03T13:01:02.973Z,8.97
2023-04-03T13:04:08.099Z,9.01
2023-04-03T13:07:21.117Z,8.67
2023-04-03T13:10:24.147Z,9.69
2023-04-03T13:13:27.362Z,10.88
2023-04-03T13:16:30.687Z,11.57
2023-04-03T13:19:32.660Z,11.45
2023-04-03T13:22:40.256Z,10.86
2023-04-03T13:25:44.520Z,10.45
2023-04-03T13:28:48.210Z,11.57
2023-04-03T13:31:54.918Z,11.48
2023-04-03T13:35:00.428Z,10.83
2023-04-03T13:38:24.298Z,10.09
2023-04-03T13:41:30.016Z,9.66
2023-04-03T13:44:34.968Z,10.72
2023-04-03T13:47:41.843Z,11.61
2023-04-03T13:51:00.604Z,13.10
2023-04-03T13:54:18.853Z,10.37
2023-04-03T13:57:20.857Z,9.85
2023-04-03T14:00:38.095Z,11.85
2023-04-03T14:03:46.395Z,11.35
2023-04-03T14:06:50.096Z,10.76
2023-04-03T14:09:53.284Z,11.86
2023-04-03T14:12:57.004Z,11.92
2023-04-03T14:16:05.732Z,11.16
2023-04-03T14:19:25.816Z,12.15
2023-04-03T14:22:31.155Z,12.49
2023-04-03T14:25:33.849Z,13.12
2023-04-03T14:28:36.280Z,12.71
2023-04-03T14:31:38.382Z,12.02
2023-04-03T14:34:44.316Z,12.76
2023-04-03T14:37:47.174Z,12.70
2023-04-03T14:40:49.530Z,10.34
2023-04-03T14:43:52.557Z,11.55
2023-04-03T14:46:57.257Z,12.30
2023-04-03T14:50:02.356Z,11.30
2023-04-03T14:53:06.558Z,12.07
2023-04-03T14:56:14.389Z,11.55
2023-04-03T14:59:18.458Z,11.54
2023-04-03T15:02:30.508Z,11.87
2023-04-03T15:05:33.888Z,11.61
2023-04-03T15:08:42.029Z,12.40
2023-04-03T15:11:44.167Z,12.22
2023-04-03T15:14:52.519Z,12.27
2023-04-03T15:17:59.107Z,12.25
2023-04-03T15:21:03.468Z,12.81
2023-04-03T15:24:06.372Z,11.57
2023-04-03T15:27:10.421Z,11.59
2023-04-03T15:30:17.396Z,11.00
2023-04-03T15:33:19.452Z,11.03
2023-04-03T15:39:31.658Z,11.76
2023-04-03T15:42:34.934Z,10.84
2023-04-03T15:45:39.702Z,10.56
2023-04-03T15:48:42.720Z,9.65
2023-04-03T15:51:46.269Z,10.76
2023-04-03T15:54:48.272Z,10.19
2023-04-03T15:57:50.298Z,10.55
2023-04-03T16:00:52.734Z,9.99
2023-04-03T16:03:55.151Z,10.43
2023-04-03T16:06:58.168Z,10.68
2023-04-03T16:10:03.661Z,10.00
2023-04-03T16:13:07.052Z,10.30
2023-04-03T16:16:09.256Z,10.25
2023-04-03T16:19:11.276Z,9.73
2023-04-03T16:22:16.111Z,9.61
2023-04-03T16:25:21.835Z,9.49
2023-04-03T16:28:23.872Z,9.51
2023-04-03T16:31:27.076Z,9.24
2023-04-03T16:34:31.943Z,8.97
2023-04-03T16:37:35.581Z,8.87
2023-04-03T16:40:38.428Z,8.67
2023-04-03T16:46:46.246Z,8.75
2023-04-03T16:49:49.598Z,8.93
2023-04-03T16:52:52.811Z,8.93
2023-04-03T16:55:55.977Z,8.76
2023-04-03T16:58:57.860Z,8.50
2023-04-03T17:01:59.683Z,8.41
2023-04-03T17:05:01.526Z,8.48
2023-04-03T17:08:04.715Z,8.39
2023-04-03T17:11:06.493Z,8.33
2023-04-03T17:14:08.384Z,8.48
2023-04-03T17:17:10.788Z,8.38
2023-04-03T17:20:21.997Z,8.06
2023-04-03T17:23:26.561Z,8.06
2023-04-03T17:26:28.507Z,8.10
2023-04-03T17:29:30.424Z,8.00
2023-04-03T17:32:32.167Z,8.02
2023-04-03T17:35:34.048Z,7.86
2023-04-03T17:38:42.038Z,7.83
2023-04-03T17:41:45.977Z,7.81
2023-04-03T17:48:13.715Z,7.24
2023-04-03T17:51:20.939Z,6.97
2023-04-03T17:54:24.422Z,7.08
2023-04-03T17:57:26.168Z,7.19
2023-04-03T18:00:28.463Z,6.46
2023-04-03T18:03:30.179Z,6.40
2023-04-03T18:06:36.947Z,6.29
2023-04-03T18:09:41.243Z,6.53
2023-04-03T18:12:43.687Z,6.23
2023-04-03T18:15:45.926Z,5.74
2023-04-03T18:18:50.702Z,5.60
2023-04-03T18:21:58.000Z,5.84
2023-04-03T18:25:01.359Z,5.91
2023-04-03T18:28:06.446Z,5.53
2023-04-03T18:31:10.985Z,5.19
2023-04-03T18:34:12.842Z,5.28
2023-04-03T18:37:15.400Z,5.36
2023-04-03T18:40:18.685Z,5.24
2023-04-03T18:43:20.719Z,5.31
2023-04-03T18:46:22.856Z,5.15
2023-04-03T18:49:24.711Z,5.07
2023-04-03T18:52:32.955Z,4.98
2023-04-03T18:55:36.088Z,4.92
2023-04-03T18:58:38.320Z,4.78
2023-04-03T19:01:40.832Z,4.58
2023-04-03T19:04:42.782Z,4.55
2023-04-03T19:07:44.970Z,4.52
2023-04-03T19:10:48.899Z,4.35
2023-04-03T19:14:10.745Z,4.41
2023-04-03T19:17:12.871Z,4.63
2023-04-03T19:20:15.500Z,4.46
2023-04-03T19:23:18.829Z,4.34
2023-04-03T19:26:29.614Z,4.05
2023-04-03T19:29:31.587Z,3.86
2023-04-03T19:32:33.891Z,3.80
2023-04-03T19:35:44.034Z,3.76
2023-04-03T19:38:46.546Z,3.75
2023-04-03T19:41:50.855Z,3.98
2023-04-03T19:44:55.484Z,4.14
2023-04-03T19:48:01.254Z,3.89
2023-04-03T19:51:04.734Z,3.87
2023-04-03T19:54:06.790Z,3.96
2023-04-03T19:57:10.146Z,4.00
2023-04-03T20:00:16.512Z,3.91
2023-04-03T20:03:18.493Z,3.79
2023-04-03T20:06:21.564Z,3.66
2023-04-03T20:09:23.415Z,3.63
2023-04-03T20:12:27.459Z,3.77
2023-04-03T20:15:30.951Z,3.92
2023-04-03T20:18:34.070Z,3.97
2023-04-03T20:21:36.476Z,4.00
2023-04-03T20:24:39.403Z,3.88
2023-04-03T20:27:42.626Z,3.77
2023-04-03T20:30:47.627Z,3.63
2023-04-03T20:33:49.463Z,3.46
2023-04-03T20:36:52.023Z,3.47
2023-04-03T20:39:53.820Z,3.53
2023-04-03T20:42:56.962Z,3.51
2023-04-03T20:45:59.903Z,3.62
2023-04-03T20:49:01.678Z,3.55
2023-04-03T20:52:04.490Z,3.67
2023-04-03T20:55:07.491Z,3.55
2023-04-03T20:58:11.386Z,3.57
2023-04-03T21:01:16.146Z,3.53
2023-04-03T21:04:23.178Z,3.49
2023-04-03T21:08:02.909Z,3.42
2023-04-03T21:11:42.315Z,3.40
2023-04-03T21:15:23.205Z,3.57
2023-04-03T21:18:48.301Z,3.34
2023-04-03T21:21:51.958Z,3.31
2023-04-03T21:24:53.818Z,3.29
2023-04-03T21:27:56.231Z,3.14
2023-04-03T21:30:58.148Z,3.12
2023-04-03T21:34:06.619Z,3.08
2023-04-03T21:37:09.583Z,3.09
2023-04-03T21:40:11.545Z,3.08
2023-04-03T21:43:13.610Z,3.05
2023-04-03T21:46:15.879Z,2.97
2023-04-03T21:49:19.398Z,2.90
2023-04-03T21:52:21.283Z,2.89
2023-04-03T21:55:23.527Z,2.84
2023-04-03T21:58:30.599Z,2.81
2023-04-03T22:01:32.904Z,2.74
2023-04-03T22:04:36.056Z,2.87
2023-04-03T22:07:38.844Z,2.84
2023-04-03T22:10:41.517Z,2.72
2023-04-03T22:13:46.611Z,2.60
2023-04-03T22:16:48.345Z,2.61
2023-04-03T22:19:51.601Z,2.57
2023-04-03T22:22:53.622Z,2.57
2023-04-03T22:25:59.634Z,2.38
2023-04-03T22:29:01.680Z,2.33
2023-04-03T22:32:05.956Z,2.36
2023-04-03T22:35:09.982Z,2.18
2023-04-03T22:38:13.129Z,2.18
2023-04-03T22:41:14.962Z,2.44
2023-04-03T22:44:17.829Z,2.23
2023-04-03T22:47:19.542Z,2.34
2023-04-03T22:50:26.964Z,2.09
2023-04-03T22:53:28.893Z,2.15
2023-04-03T22:56:30.738Z,2.35
2023-04-03T22:59:32.761Z,2.33
2023-04-03T23:02:34.534Z,2.26
2023-04-03T23:05:39.162Z,2.33
2023-04-03T23:08:42.122Z,2.35
2023-04-03T23:11:46.651Z,2.05
2023-04-03T23:14:49.814Z,2.15
2023-04-03T23:17:51.926Z,2.18
2023-04-03T23:20:55.354Z,2.13
2023-04-03T23:23:57.396Z,2.09
2023-04-03T23:26:59.123Z,1.99
2023-04-03T23:30:01.303Z,2.01
2023-04-03T23:33:03.838Z,1.96
2023-04-03T23:36:12.879Z,1.92
2023-04-03T23:39:14.774Z,2.04
2023-04-03T23:42:17.371Z,1.99
2023-04-03T23:45:19.329Z,2.07
2023-04-03T23:48:21.910Z,2.03
2023-04-03T23:51:25.910Z,1.90
2023-04-03T23:54:27.672Z,1.98
2023-04-03T23:57:29.505Z,1.92
